createdAt,value
2022-09-28T00:01:14.417Z,14.48
2022-09-28T00:03:41.531Z,14.68
2022-09-28T00:06:11.957Z,14.24
2022-09-28T00:08:39.515Z,14.45
2022-09-28T00:11:12.434Z,14.69
2022-09-28T00:13:40.413Z,14.46
2022-09-28T00:16:13.279Z,14.39
2022-09-28T00:18:40.766Z,14.34
2022-09-28T00:21:16.235Z,14.45
2022-09-28T00:24:02.177Z,14.70
2022-09-28T00:26:30.951Z,14.58
2022-09-28T00:29:00.074Z,14.28
2022-09-28T00:31:30.198Z,14.25
2022-09-28T00:33:57.574Z,14.45
2022-09-28T00:36:27.037Z,14.57
2022-09-28T00:38:58.119Z,14.32
2022-09-28T00:41:26.749Z,14.75
2022-09-28T00:43:54.514Z,14.93
2022-09-28T00:46:31.195Z,14.68
2022-09-28T00:49:03.243Z,14.92
2022-09-28T00:51:31.639Z,14.91
2022-09-28T00:54:00.447Z,15.07
2022-09-28T00:56:29.516Z,14.77
2022-09-28T00:58:57.828Z,14.58
2022-09-28T01:01:25.409Z,14.67
2022-09-28T01:03:53.765Z,14.85
2022-09-28T01:06:24.104Z,14.38
2022-09-28T01:08:52.268Z,14.72
2022-09-28T01:11:19.832Z,14.51
2022-09-28T01:13:50.048Z,14.79
2022-09-28T01:16:40.599Z,14.96
2022-09-28T01:19:45.737Z,14.36
2022-09-28T01:22:37.493Z,14.15
2022-09-28T01:25:23.772Z,14.34
2022-09-28T01:27:54.459Z,14.37
2022-09-28T01:30:21.987Z,14.67
2022-09-28T01:32:54.675Z,13.63
2022-09-28T01:35:39.440Z,14.08
2022-09-28T01:38:14.220Z,14.28
2022-09-28T01:40:42.148Z,14.18
2022-09-28T01:43:37.183Z,13.98
2022-09-28T01:46:14.111Z,14.27
2022-09-28T01:48:46.722Z,14.61
2022-09-28T01:51:21.097Z,14.58
2022-09-28T01:53:53.811Z,14.23
2022-09-28T01:56:30.199Z,14.07
2022-09-28T01:59:06.532Z,13.71
2022-09-28T02:01:50.878Z,13.57
2022-09-28T02:04:21.731Z,13.52
2022-09-28T02:06:54.373Z,13.78
2022-09-28T02:09:33.093Z,13.76
2022-09-28T02:12:10.129Z,13.75
2022-09-28T02:14:39.879Z,13.75
2022-09-28T02:17:07.489Z,13.70
2022-09-28T02:19:35.482Z,13.73
2022-09-28T02:22:14.603Z,13.63
2022-09-28T02:24:59.688Z,13.68
2022-09-28T02:27:37.766Z,13.95
2022-09-28T02:30:06.485Z,13.90
2022-09-28T02:32:35.801Z,14.40
2022-09-28T02:35:03.407Z,13.91
2022-09-28T02:37:31.043Z,14.09
2022-09-28T02:39:58.814Z,13.91
2022-09-28T02:42:34.876Z,13.86
2022-09-28T02:45:27.114Z,14.10
2022-09-28T02:48:55.702Z,13.94
2022-09-28T02:51:20.538Z,14.06
2022-09-28T02:54:16.652Z,13.68
2022-09-28T02:57:13.857Z,13.88
2022-09-28T03:00:02.420Z,14.39
2022-09-28T03:02:57.307Z,14.54
2022-09-28T03:05:53.079Z,14.34
2022-09-28T03:08:29.584Z,14.32
2022-09-28T03:11:07.751Z,13.94
2022-09-28T03:13:35.517Z,14.15
2022-09-28T03:16:20.618Z,14.57
2022-09-28T03:18:49.933Z,14.75
2022-09-28T03:21:17.254Z,14.48
2022-09-28T03:23:44.491Z,13.90
2022-09-28T03:26:12.738Z,13.33
2022-09-28T03:28:40.707Z,13.14
2022-09-28T03:31:11.956Z,13.44
2022-09-28T03:33:39.336Z,13.64
2022-09-28T03:36:08.705Z,12.93
2022-09-28T03:38:36.780Z,12.82
2022-09-28T03:41:04.282Z,12.66
2022-09-28T03:43:35.494Z,13.32
2022-09-28T03:46:03.846Z,13.38
2022-09-28T03:48:37.104Z,13.26
2022-09-28T03:51:06.951Z,13.45
2022-09-28T03:53:34.143Z,13.50
2022-09-28T03:56:06.248Z,13.80
2022-09-28T03:58:34.116Z,14.20
2022-09-28T04:01:06.894Z,13.94
2022-09-28T04:03:34.243Z,14.38
2022-09-28T04:06:01.560Z,13.90
2022-09-28T04:08:28.999Z,13.42
2022-09-28T04:10:57.783Z,13.62
2022-09-28T04:13:26.081Z,13.68
2022-09-28T04:15:54.846Z,13.17
2022-09-28T04:18:22.695Z,13.91
2022-09-28T04:21:08.870Z,14.28
2022-09-28T04:23:41.542Z,14.24
2022-09-28T04:26:32.771Z,13.96
2022-09-28T04:29:18.979Z,13.81
2022-09-28T04:31:57.258Z,14.23
2022-09-28T04:34:37.112Z,14.22
2022-09-28T04:37:06.072Z,14.34
2022-09-28T04:39:33.439Z,14.08
2022-09-28T04:42:01.162Z,14.36
2022-09-28T04:44:29.110Z,14.58
2022-09-28T04:47:04.838Z,14.23
2022-09-28T04:49:33.804Z,13.85
2022-09-28T04:52:11.670Z,13.61
2022-09-28T04:54:41.050Z,13.30
2022-09-28T04:57:08.435Z,13.84
2022-09-28T04:59:37.639Z,13.73
2022-09-28T05:02:05.704Z,13.66
2022-09-28T05:04:59.601Z,13.29
2022-09-28T05:07:27.026Z,13.03
2022-09-28T05:09:55.900Z,12.64
2022-09-28T05:12:23.680Z,12.57
2022-09-28T05:14:50.905Z,13.32
2022-09-28T05:17:18.715Z,13.31
2022-09-28T05:19:45.864Z,13.10
2022-09-28T05:22:15.031Z,13.05
2022-09-28T05:24:46.828Z,13.10
2022-09-28T05:27:15.080Z,13.29
2022-09-28T05:29:45.884Z,13.96
2022-09-28T05:32:31.806Z,14.40
2022-09-28T05:35:11.182Z,14.01
2022-09-28T05:37:42.227Z,13.99
2022-09-28T05:40:10.122Z,14.31
2022-09-28T05:42:39.084Z,14.19
2022-09-28T05:45:06.848Z,14.49
2022-09-28T05:47:42.292Z,14.80
2022-09-28T05:50:15.998Z,14.77
2022-09-28T05:52:43.974Z,14.79
2022-09-28T05:55:11.424Z,14.93
2022-09-28T05:57:38.878Z,14.51
2022-09-28T06:00:09.241Z,14.53
2022-09-28T06:03:08.543Z,14.87
2022-09-28T06:05:37.032Z,14.91
2022-09-28T06:08:07.247Z,14.24
2022-09-28T06:10:35.397Z,13.96
2022-09-28T06:13:03.370Z,14.27
2022-09-28T06:15:31.937Z,14.61
2022-09-28T06:18:10.641Z,14.39
2022-09-28T06:21:02.954Z,14.71
2022-09-28T06:23:44.550Z,14.80
2022-09-28T06:26:14.412Z,14.73
2022-09-28T06:28:41.645Z,14.73
2022-09-28T06:31:09.779Z,13.88
2022-09-28T06:33:44.139Z,13.89
2022-09-28T06:36:13.730Z,13.83
2022-09-28T06:38:40.925Z,13.41
2022-09-28T06:41:08.910Z,13.26
2022-09-28T06:43:39.558Z,13.41
2022-09-28T06:46:14.128Z,13.72
2022-09-28T06:48:50.676Z,13.23
2022-09-28T06:51:22.307Z,13.98
2022-09-28T06:53:56.476Z,13.52
2022-09-28T06:56:59.244Z,13.58
2022-09-28T06:59:26.677Z,13.30
2022-09-28T07:01:54.143Z,13.58
2022-09-28T07:04:44.663Z,13.40
2022-09-28T07:07:44.796Z,13.21
2022-09-28T07:10:42.600Z,13.12
2022-09-28T07:13:46.654Z,13.58
2022-09-28T07:16:15.983Z,13.65
2022-09-28T07:18:43.240Z,13.75
2022-09-28T07:21:21.910Z,13.91
2022-09-28T07:23:54.490Z,12.98
2022-09-28T07:26:25.647Z,12.86
2022-09-28T07:29:06.197Z,12.88
2022-09-28T07:31:57.231Z,13.08
2022-09-28T07:34:46.354Z,12.86
2022-09-28T07:37:29.027Z,12.85
2022-09-28T07:40:15.581Z,13.32
2022-09-28T07:42:42.971Z,14.12
2022-09-28T07:45:11.733Z,14.14
2022-09-28T07:47:38.958Z,13.45
2022-09-28T07:50:21.216Z,13.18
2022-09-28T07:53:02.179Z,13.38
2022-09-28T07:55:32.463Z,13.33
2022-09-28T07:58:09.194Z,13.37
2022-09-28T08:01:10.898Z,13.18
2022-09-28T08:03:39.831Z,12.95
2022-09-28T08:06:11.139Z,13.00
2022-09-28T08:08:43.800Z,13.25
2022-09-28T08:11:14.066Z,13.15
2022-09-28T08:14:00.113Z,12.71
2022-09-28T08:16:47.678Z,12.72
2022-09-28T08:19:25.664Z,12.88
2022-09-28T08:21:53.272Z,13.00
2022-09-28T08:24:21.097Z,12.98
2022-09-28T08:26:49.809Z,13.06
2022-09-28T08:29:18.252Z,12.82
2022-09-28T08:32:08.182Z,12.94
2022-09-28T08:34:40.297Z,13.02
2022-09-28T08:37:09.207Z,13.18
2022-09-28T08:40:17.614Z,13.72
2022-09-28T08:43:35.353Z,12.89
2022-09-28T08:46:27.378Z,12.66
2022-09-28T08:49:30.341Z,13.03
2022-09-28T08:52:23.566Z,13.83
2022-09-28T08:55:16.075Z,13.86
2022-09-28T08:57:51.594Z,14.04
2022-09-28T09:00:21.846Z,14.18
2022-09-28T09:02:49.515Z,13.38
2022-09-28T09:05:21.135Z,13.25
2022-09-28T09:08:42.368Z,13.23
2022-09-28T09:11:29.559Z,13.49
2022-09-28T09:14:08.944Z,13.59
2022-09-28T09:17:00.452Z,13.69
2022-09-28T09:20:02.240Z,13.82
2022-09-28T09:22:55.598Z,14.04
2022-09-28T09:25:40.379Z,13.85
2022-09-28T09:28:28.675Z,13.45
2022-09-28T09:31:08.877Z,13.68
2022-09-28T09:34:06.726Z,13.76
2022-09-28T09:37:01.214Z,13.98
2022-09-28T09:40:17.893Z,13.83
2022-09-28T09:43:31.555Z,13.68
2022-09-28T09:46:43.177Z,14.30
2022-09-28T09:49:23.662Z,14.34
2022-09-28T09:52:10.239Z,14.69
2022-09-28T09:54:40.614Z,14.05
2022-09-28T09:57:27.117Z,14.32
2022-09-28T10:00:04.139Z,14.32
2022-09-28T10:02:55.300Z,14.64
2022-09-28T10:05:34.942Z,14.85
2022-09-28T10:08:15.125Z,15.23
2022-09-28T10:11:14.365Z,14.83
2022-09-28T10:13:49.266Z,14.64
2022-09-28T10:16:39.515Z,14.37
2022-09-28T10:19:13.313Z,14.29
2022-09-28T10:22:04.910Z,13.53
2022-09-28T10:24:36.045Z,13.52
2022-09-28T10:27:06.749Z,13.85
2022-09-28T10:29:43.126Z,13.48
2022-09-28T10:32:22.366Z,13.99
2022-09-28T10:34:53.121Z,14.68
2022-09-28T10:37:24.441Z,14.53
2022-09-28T10:40:05.760Z,13.92
2022-09-28T10:42:36.207Z,13.61
2022-09-28T10:45:20.126Z,13.73
2022-09-28T10:47:47.567Z,14.08
2022-09-28T10:50:24.735Z,14.73
2022-09-28T10:53:20.499Z,14.26
2022-09-28T10:56:20.577Z,14.07
2022-09-28T10:58:52.067Z,13.78
2022-09-28T11:01:40.008Z,13.92
2022-09-28T11:04:10.649Z,13.84
2022-09-28T11:06:40.113Z,13.55
2022-09-28T11:09:30.505Z,14.09
2022-09-28T11:12:04.561Z,14.22
2022-09-28T11:14:42.036Z,14.78
2022-09-28T11:17:29.434Z,15.36
2022-09-28T11:19:59.972Z,15.67
2022-09-28T11:22:31.637Z,15.49
2022-09-28T11:25:16.489Z,16.11
2022-09-28T11:27:53.297Z,16.18
2022-09-28T11:30:43.631Z,15.97
2022-09-28T11:33:27.562Z,15.37
2022-09-28T11:36:18.925Z,15.38
2022-09-28T11:39:09.075Z,15.21
2022-09-28T11:42:05.191Z,15.44
2022-09-28T11:44:39.013Z,15.22
2022-09-28T11:47:25.305Z,14.98
2022-09-28T11:50:13.576Z,14.99
2022-09-28T11:52:50.401Z,15.24
2022-09-28T11:55:39.054Z,15.20
2022-09-28T11:58:19.932Z,15.39
2022-09-28T12:00:52.333Z,14.81
2022-09-28T12:03:26.649Z,14.59
2022-09-28T12:06:00.505Z,14.42
2022-09-28T12:08:31.045Z,14.46
2022-09-28T12:11:18.405Z,14.71
2022-09-28T12:14:20.649Z,14.19
2022-09-28T12:17:05.853Z,14.08
2022-09-28T12:19:39.228Z,14.06
2022-09-28T12:22:17.753Z,14.52
2022-09-28T12:24:51.396Z,14.48
2022-09-28T12:27:25.232Z,14.29
2022-09-28T12:30:04.086Z,14.46
2022-09-28T12:32:39.244Z,14.81
2022-09-28T12:35:15.182Z,15.03
2022-09-28T12:38:09.857Z,14.59
2022-09-28T12:41:01.799Z,15.16
2022-09-28T12:43:33.425Z,15.50
2022-09-28T12:46:13.079Z,15.54
2022-09-28T12:49:47.208Z,15.96
2022-09-28T12:51:54.848Z,16.12
2022-09-28T12:54:50.649Z,16.59
2022-09-28T12:57:30.148Z,16.65
2022-09-28T13:00:02.957Z,16.38
2022-09-28T13:02:51.943Z,15.51
2022-09-28T13:05:23.507Z,15.19
2022-09-28T13:07:54.560Z,15.20
2022-09-28T13:10:34.179Z,15.85
2022-09-28T13:13:01.448Z,16.27
2022-09-28T13:15:32.128Z,16.52
2022-09-28T13:18:20.950Z,16.51
2022-09-28T13:21:00.525Z,16.25
2022-09-28T13:23:34.031Z,15.86
2022-09-28T13:26:26.248Z,16.51
2022-09-28T13:28:56.164Z,16.68
2022-09-28T13:31:32.462Z,17.00
2022-09-28T13:34:03.027Z,16.95
2022-09-28T13:36:32.976Z,16.97
2022-09-28T13:39:01.031Z,16.88
2022-09-28T13:41:37.564Z,17.04
2022-09-28T13:44:13.603Z,17.04
2022-09-28T13:47:05.274Z,17.31
2022-09-28T13:49:52.659Z,17.17
2022-09-28T13:52:19.912Z,16.80
2022-09-28T13:55:03.617Z,16.17
2022-09-28T13:57:43.509Z,16.40
2022-09-28T14:00:10.765Z,16.46
2022-09-28T14:02:40.809Z,16.77
2022-09-28T14:05:56.684Z,16.15
2022-09-28T14:08:44.944Z,15.34
2022-09-28T14:11:27.545Z,14.74
2022-09-28T14:14:00.297Z,14.56
2022-09-28T14:16:32.199Z,14.33
2022-09-28T14:19:05.863Z,14.07
2022-09-28T14:21:39.107Z,13.52
2022-09-28T14:24:22.947Z,13.25
2022-09-28T14:27:08.252Z,13.18
2022-09-28T14:29:37.779Z,13.21
2022-09-28T14:32:24.603Z,13.20
2022-09-28T14:34:58.513Z,13.72
2022-09-28T14:37:50.432Z,13.87
2022-09-28T14:40:48.657Z,13.55
2022-09-28T14:43:26.091Z,13.69
2022-09-28T14:46:17.631Z,14.06
2022-09-28T14:48:52.654Z,14.58
2022-09-28T14:51:30.207Z,15.00
2022-09-28T14:54:12.702Z,14.94
2022-09-28T14:56:51.926Z,14.86
2022-09-28T14:59:22.476Z,14.59
2022-09-28T15:02:07.984Z,15.26
2022-09-28T15:04:39.381Z,15.67
2022-09-28T15:07:06.629Z,15.20
2022-09-28T15:09:37.952Z,15.26
2022-09-28T15:12:15.177Z,14.74
2022-09-28T15:15:03.483Z,14.67
2022-09-28T15:17:40.441Z,15.09
2022-09-28T15:20:17.221Z,15.34
2022-09-28T15:22:49.626Z,15.58
2022-09-28T15:25:20.433Z,15.05
2022-09-28T15:27:52.852Z,15.03
2022-09-28T15:30:26.174Z,15.14
2022-09-28T15:32:56.807Z,15.50
2022-09-28T15:35:26.960Z,14.83
2022-09-28T15:37:54.857Z,14.97
2022-09-28T15:40:22.421Z,15.05
2022-09-28T15:42:49.745Z,15.01
2022-09-28T15:45:32.143Z,14.82
2022-09-28T15:48:24.959Z,14.82
2022-09-28T15:50:58.114Z,14.31
2022-09-28T15:53:25.820Z,14.05
2022-09-28T15:55:54.725Z,14.13
2022-09-28T15:58:24.253Z,14.41
2022-09-28T16:01:20.106Z,15.08
2022-09-28T16:03:47.346Z,15.35
2022-09-28T16:06:14.707Z,15.71
2022-09-28T16:08:48.435Z,15.76
2022-09-28T16:11:24.407Z,15.63
2022-09-28T16:13:56.414Z,16.08
2022-09-28T16:16:29.869Z,15.89
2022-09-28T16:18:58.831Z,15.58
2022-09-28T16:21:28.601Z,15.01
2022-09-28T16:23:55.914Z,15.19
2022-09-28T16:26:32.218Z,14.50
2022-09-28T16:28:59.817Z,15.01
2022-09-28T16:31:33.702Z,15.58
2022-09-28T16:34:20.092Z,15.96
2022-09-28T16:36:48.954Z,15.65
2022-09-28T16:39:17.421Z,15.36
2022-09-28T16:41:56.153Z,15.16
2022-09-28T16:44:29.322Z,15.43
2022-09-28T16:46:57.702Z,15.28
2022-09-28T16:49:25.588Z,15.39
2022-09-28T16:51:52.976Z,15.54
2022-09-28T16:54:41.350Z,15.76
2022-09-28T16:57:11.985Z,15.73
2022-09-28T16:59:39.441Z,15.62
2022-09-28T17:05:13.420Z,15.55
2022-09-28T17:07:40.766Z,14.90
2022-09-28T17:10:56.041Z,14.96
2022-09-28T17:13:33.962Z,15.36
2022-09-28T17:16:11.124Z,15.67
2022-09-28T17:18:39.667Z,15.88
2022-09-28T17:21:11.542Z,15.06
2022-09-28T17:23:39.111Z,14.63
2022-09-28T17:26:06.524Z,14.78
2022-09-28T17:28:35.857Z,14.43
2022-09-28T17:31:04.339Z,14.40
2022-09-28T17:33:31.633Z,14.16
2022-09-28T17:36:01.026Z,13.84
2022-09-28T17:38:28.506Z,14.00
2022-09-28T17:40:55.817Z,14.34
2022-09-28T17:43:23.273Z,14.43
2022-09-28T17:45:50.697Z,14.06
2022-09-28T17:48:23.377Z,14.07
2022-09-28T17:50:51.765Z,13.97
2022-09-28T17:53:19.647Z,13.85
2022-09-28T17:55:46.952Z,14.11
2022-09-28T17:58:19.280Z,13.99
2022-09-28T18:00:47.695Z,14.39
2022-09-28T18:03:20.623Z,13.95
2022-09-28T18:05:50.843Z,14.16
2022-09-28T18:08:18.487Z,13.86
2022-09-28T18:10:48.670Z,14.21
2022-09-28T18:13:15.776Z,14.61
2022-09-28T18:15:43.109Z,14.58
2022-09-28T18:18:10.446Z,14.31
2022-09-28T18:20:37.787Z,14.48
2022-09-28T18:23:05.001Z,13.93
2022-09-28T18:25:32.316Z,13.70
2022-09-28T18:28:00.145Z,13.83
2022-09-28T18:30:28.058Z,14.37
2022-09-28T18:32:55.249Z,14.38
2022-09-28T18:35:23.354Z,13.74
2022-09-28T18:37:50.671Z,14.17
2022-09-28T18:40:17.993Z,14.70
2022-09-28T18:42:45.212Z,14.58
2022-09-28T18:45:12.444Z,14.89
2022-09-28T18:47:39.987Z,14.83
2022-09-28T18:50:08.100Z,15.18
2022-09-28T18:52:36.926Z,15.40
2022-09-28T18:55:05.736Z,15.45
2022-09-28T18:57:35.932Z,15.03
2022-09-28T19:00:11.566Z,14.40
2022-09-28T19:02:39.230Z,14.67
2022-09-28T19:05:07.112Z,14.86
2022-09-28T19:07:35.557Z,15.17
2022-09-28T19:10:03.107Z,15.15
2022-09-28T19:12:30.464Z,15.08
2022-09-28T19:14:59.934Z,15.21
2022-09-28T19:17:27.308Z,15.30
2022-09-28T19:19:55.617Z,15.42
2022-09-28T19:22:22.956Z,15.42
2022-09-28T19:24:50.169Z,15.47
2022-09-28T19:27:17.611Z,15.43
2022-09-28T19:29:44.848Z,15.17
2022-09-28T19:32:12.673Z,14.88
2022-09-28T19:34:40.087Z,15.04
2022-09-28T19:37:07.328Z,14.74
2022-09-28T19:39:34.705Z,14.98
2022-09-28T19:42:01.920Z,14.25
2022-09-28T19:44:30.106Z,14.30
2022-09-28T19:46:59.014Z,14.65
2022-09-28T19:49:27.813Z,14.72
2022-09-28T19:52:13.937Z,14.91
2022-09-28T19:54:54.371Z,15.08
2022-09-28T19:57:22.682Z,15.16
2022-09-28T19:59:52.714Z,15.21
2022-09-28T20:02:21.315Z,15.28
2022-09-28T20:04:48.930Z,15.31
2022-09-28T20:07:16.198Z,15.35
2022-09-28T20:09:43.447Z,15.48
2022-09-28T20:12:11.198Z,15.27
2022-09-28T20:14:40.416Z,15.02
2022-09-28T20:17:08.095Z,14.85
2022-09-28T20:19:36.193Z,14.70
2022-09-28T20:22:04.034Z,14.83
2022-09-28T20:24:32.005Z,14.72
2022-09-28T20:26:59.378Z,14.84
2022-09-28T20:29:26.817Z,15.09
2022-09-28T20:31:54.133Z,15.25
2022-09-28T20:34:21.345Z,15.22
2022-09-28T20:36:50.456Z,15.30
2022-09-28T20:39:17.919Z,15.18
2022-09-28T20:41:46.606Z,15.30
2022-09-28T20:44:13.840Z,15.29
2022-09-28T20:46:41.187Z,14.35
2022-09-28T20:49:08.551Z,14.79
2022-09-28T20:51:35.885Z,15.01
2022-09-28T20:54:03.129Z,15.16
2022-09-28T20:56:37.586Z,14.66
2022-09-28T20:59:07.015Z,14.85
2022-09-28T21:01:35.140Z,15.09
2022-09-28T21:04:04.272Z,14.90
2022-09-28T21:06:33.560Z,14.97
2022-09-28T21:09:01.163Z,14.80
2022-09-28T21:11:29.707Z,15.16
2022-09-28T21:13:59.391Z,15.28
2022-09-28T21:16:29.095Z,14.81
2022-09-28T21:18:56.709Z,14.92
2022-09-28T21:21:24.882Z,14.94
2022-09-28T21:23:56.400Z,15.03
2022-09-28T21:26:26.350Z,15.35
2022-09-28T21:28:54.816Z,15.43
2022-09-28T21:31:28.494Z,15.29
2022-09-28T21:33:59.389Z,15.37
2022-09-28T21:36:26.635Z,15.28
2022-09-28T21:38:55.506Z,15.62
2022-09-28T21:41:25.048Z,15.46
2022-09-28T21:43:52.569Z,14.61
2022-09-28T21:46:20.233Z,14.34
2022-09-28T21:48:51.846Z,14.71
2022-09-28T21:51:19.500Z,15.06
2022-09-28T21:53:48.470Z,15.14
2022-09-28T21:56:15.749Z,15.02
2022-09-28T21:58:42.903Z,15.15
2022-09-28T22:01:19.709Z,15.06
2022-09-28T22:03:49.287Z,14.95
2022-09-28T22:06:18.404Z,14.53
2022-09-28T22:08:46.915Z,14.68
2022-09-28T22:11:26.375Z,14.82
2022-09-28T22:13:56.069Z,14.70
2022-09-28T22:16:26.046Z,14.76
2022-09-28T22:18:53.714Z,14.92
2022-09-28T22:21:32.730Z,15.15
2022-09-28T22:24:02.027Z,15.25
2022-09-28T22:26:31.464Z,15.03
2022-09-28T22:29:00.974Z,15.10
2022-09-28T22:31:36.413Z,15.27
2022-09-28T22:34:04.673Z,15.05
2022-09-28T22:36:32.260Z,15.01
2022-09-28T22:38:59.984Z,14.94
2022-09-28T22:41:27.466Z,15.13
2022-09-28T22:43:54.811Z,15.21
2022-09-28T22:46:27.289Z,15.29
2022-09-28T22:48:56.654Z,14.83
2022-09-28T22:51:25.179Z,14.98
2022-09-28T22:53:52.753Z,15.01
2022-09-28T22:56:19.952Z,15.02
2022-09-28T22:58:47.586Z,14.77
2022-09-28T23:01:21.061Z,14.90
2022-09-28T23:03:49.713Z,14.87
2022-09-28T23:06:19.201Z,14.89
2022-09-28T23:08:47.430Z,14.89
2022-09-28T23:11:15.291Z,14.88
2022-09-28T23:13:42.712Z,14.78
2022-09-28T23:16:14.800Z,14.87
2022-09-28T23:18:42.222Z,14.93
2022-09-28T23:21:15.391Z,15.12
2022-09-28T23:23:43.791Z,15.21
2022-09-28T23:26:12.267Z,15.09
2022-09-28T23:28:39.681Z,14.71
2022-09-28T23:31:16.447Z,14.67
2022-09-28T23:33:43.992Z,14.63
2022-09-28T23:36:11.655Z,14.79
2022-09-28T23:38:39.375Z,14.74
2022-09-28T23:41:06.744Z,14.88
2022-09-28T23:43:34.537Z,14.72
2022-09-28T23:46:02.842Z,14.63
2022-09-28T23:48:30.277Z,14.61
2022-09-28T23:50:57.856Z,14.64
2022-09-28T23:53:25.299Z,14.78
2022-09-28T23:55:52.841Z,14.63
2022-09-28T23:58:20.731Z,14.79
